KCEY/CEY METAR and TAF weather

Enter ICAO airport designator
Station Type Date Time Source
KCEY METAR 2018/12/11 00:55 UTC NOAA

KCEY 110055Z AUTO 26003KT 10SM CLR M01/M07 A3031 RMK AO1


Station Type Date Time Source
KCEY Decoded METAR 2018/12/11 00:55 UTC NOAA

Station name not available
Dec 10, 2018 - 07:55 PM EST / 2018.12.11 0055 UTC
Wind: from the W (260 degrees) at 3 MPH (3 KT):0
Visibility: 10 mile(s):0
Sky conditions: clear
Temperature: 30 F (-1 C)
Dew Point: 19 F (-7 C)
Relative Humidity: 63%
Pressure (altimeter): 30.31 in. Hg (1026 hPa)
ob: KCEY 110055Z AUTO 26003KT 10SM CLR M01/M07 A3031 RMK AO1
cycle: 1

Station Type Date Time Source
KCEY TAF UTC NOAA

Error!


Example: see airport list